Time;durP1;ratioP1;P1;durP2;ratioP2;P2;SDS_P1;SDS_P2;PMS_P1;PMS_P2;Temp;Humidity;BMP_temperature;BMP_pressure;BME280_temperature;BME280_humidity;BME280_pressure;Samples;Min_cycle;Max_cycle;Signal;HPM_P1;HPM_P2
2021/11/04 00:04:26;;;;;;;0.10;0.10;;;21.20;36.70;21.50;92375.00;;;;10477362;28;45149;-61
2021/11/04 00:14:34;;;;;;;0.25;0.10;;;21.20;36.60;21.50;92366.00;;;;10394675;28;45133;-59
2021/11/04 00:19:35;;;;;;;0.10;0.10;;;21.20;36.60;21.50;92405.00;;;;10392581;28;46474;-60
2021/11/04 00:24:36;;;;;;;0.10;0.10;;;21.20;36.70;21.50;92410.00;;;;10427050;28;45414;-60
2021/11/04 00:29:37;;;;;;;0.52;0.17;;;21.20;36.70;21.50;92409.00;;;;10449329;28;45336;-61
2021/11/04 00:34:38;;;;;;;0.10;0.10;;;21.20;36.60;21.50;92399.00;;;;10434445;28;46737;-59
2021/11/04 00:39:38;;;;;;;0.00;0.00;;;21.20;36.70;21.50;92376.00;;;;10435271;28;45599;-61
2021/11/04 00:44:39;;;;;;;0.17;0.10;;;21.20;36.60;21.50;92370.00;;;;10427588;28;45114;-60
2021/11/04 00:49:40;;;;;;;0.10;0.05;;;21.20;36.60;21.50;92375.00;;;;10414242;28;45442;-60
2021/11/04 00:54:41;;;;;;;0.10;0.00;;;21.10;36.60;21.50;92384.00;;;;10433748;28;45389;-59
2021/11/04 00:59:41;;;;;;;0.20;0.13;;;21.10;36.60;21.50;92393.00;;;;10434400;28;45116;-60
2021/11/04 01:04:42;;;;;;;0.10;0.00;;;21.20;36.70;21.50;92391.00;;;;10434797;28;45294;-60
2021/11/04 01:09:43;;;;;;;0.10;0.10;;;21.10;36.60;21.50;92392.00;;;;10433597;28;45205;-59
2021/11/04 01:14:44;;;;;;;0.10;0.10;;;21.10;36.60;21.50;92400.00;;;;10433566;28;46346;-60
2021/11/04 01:19:44;;;;;;;0.10;0.10;;;21.10;36.70;21.40;92375.00;;;;10432477;28;45393;-60
2021/11/04 01:24:45;;;;;;;0.43;0.10;;;21.10;36.60;21.50;92361.00;;;;10432846;28;46290;-59
2021/11/04 01:29:46;;;;;;;0.17;0.17;;;21.10;36.70;21.40;92374.00;;;;10434086;28;45464;-59
2021/11/04 01:34:46;;;;;;;0.10;0.10;;;21.10;36.60;21.40;92349.00;;;;10432719;28;47340;-59
2021/11/04 01:39:47;;;;;;;0.10;0.10;;;21.10;36.70;21.40;92361.00;;;;10433353;28;45576;-60
2021/11/04 01:44:48;;;;;;;0.30;0.10;;;21.10;36.60;21.40;92339.00;;;;10434100;28;45290;-60
2021/11/04 01:49:49;;;;;;;0.28;0.20;;;21.10;36.60;21.40;92348.00;;;;10432367;28;45308;-60
2021/11/04 01:54:50;;;;;;;0.13;0.10;;;21.00;36.50;21.40;92336.00;;;;10432753;28;46323;-59
2021/11/04 01:59:51;;;;;;;0.15;0.10;;;21.10;36.50;21.40;92349.00;;;;10436097;28;46013;-59
2021/11/04 02:05:03;;;;;;;0.03;0.03;;;21.10;37.20;21.40;92355.00;;;;10437047;28;45561;-60
2021/11/04 02:10:33;;;;;;;0.05;0.03;;;21.00;36.50;21.40;92363.00;;;;10439589;28;45876;-60
2021/11/04 02:15:38;;;;;;;0.00;0.00;;;21.00;36.50;21.40;92371.00;;;;10439419;28;45413;-60
2021/11/04 02:21:01;;;;;;;0.08;0.05;;;21.00;36.60;21.40;92356.00;;;;10438840;28;45211;-60
2021/11/04 02:26:04;;;;;;;0.10;0.10;;;21.00;36.50;21.40;92364.00;;;;10439829;28;45380;-59
2021/11/04 02:31:08;;;;;;;0.10;0.10;;;21.00;36.50;21.40;92363.00;;;;10439539;28;45391;-60
2021/11/04 02:36:10;;;;;;;0.10;0.10;;;21.00;36.60;21.30;92362.00;;;;10438817;28;47137;-60
2021/11/04 02:41:11;;;;;;;0.10;0.10;;;21.00;36.50;21.30;92374.00;;;;10439350;28;46442;-60
2021/11/04 02:46:13;;;;;;;0.05;0.00;;;21.00;36.60;21.40;92398.00;;;;10438726;28;46093;-61
2021/11/04 02:51:13;;;;;;;0.82;0.10;;;21.00;36.60;21.40;92396.00;;;;10361838;28;47050;-59
2021/11/04 02:56:14;;;;;;;0.10;0.00;;;21.00;36.50;21.40;92413.00;;;;10371579;28;45177;-59
2021/11/04 03:01:15;;;;;;;0.20;0.05;;;21.00;36.50;21.40;92411.00;;;;10354818;28;47240;-60
2021/11/04 03:06:16;;;;;;;0.10;0.10;;;21.00;36.60;21.30;92422.00;;;;10371084;28;45371;-59
2021/11/04 03:11:17;;;;;;;0.05;0.00;;;21.00;36.50;21.30;92429.00;;;;10370510;28;46439;-59
2021/11/04 03:16:19;;;;;;;0.20;0.00;;;20.90;36.50;21.30;92440.00;;;;10371640;28;46360;-59
2021/11/04 03:21:21;;;;;;;0.20;0.20;;;21.00;36.50;21.30;92433.00;;;;10422344;28;46416;-61
2021/11/04 03:26:25;;;;;;;0.00;0.00;;;21.00;36.50;21.30;92446.00;;;;10436440;28;46779;-59
2021/11/04 03:31:27;;;;;;;0.25;0.00;;;20.90;36.50;21.30;92445.00;;;;10436021;28;45262;-59
2021/11/04 03:36:28;;;;;;;0.10;0.10;;;21.00;36.50;21.30;92455.00;;;;10436016;28;45377;-59
2021/11/04 03:41:31;;;;;;;0.10;0.00;;;21.00;36.50;21.30;92469.00;;;;10436173;28;45648;-61
2021/11/04 03:46:34;;;;;;;0.00;0.00;;;21.00;36.50;21.30;92478.00;;;;10437032;28;45329;-60
2021/11/04 03:51:35;;;;;;;0.00;0.00;;;21.00;36.50;21.30;92474.00;;;;10373570;28;45572;-60
2021/11/04 03:56:36;;;;;;;0.10;0.10;;;21.00;36.50;21.30;92493.00;;;;10369200;28;46409;-59
2021/11/04 04:01:37;;;;;;;0.10;0.00;;;20.90;36.40;21.30;92498.00;;;;10369025;28;47274;-59
2021/11/04 04:06:38;;;;;;;0.25;0.10;;;20.90;36.50;21.30;92505.00;;;;10369088;28;47146;-59
2021/11/04 04:11:38;;;;;;;0.00;0.00;;;20.90;36.50;21.30;92504.00;;;;10368177;28;45318;-60
2021/11/04 04:16:39;;;;;;;0.13;0.13;;;20.90;36.50;21.30;92513.00;;;;10369431;28;45327;-61
2021/11/04 04:21:40;;;;;;;0.22;0.10;;;20.90;36.50;21.30;92526.00;;;;10368427;28;45566;-60
2021/11/04 04:26:41;;;;;;;0.00;0.00;;;20.90;36.50;21.30;92526.00;;;;10368579;28;45248;-60
2021/11/04 04:31:42;;;;;;;0.00;0.00;;;20.90;36.60;21.30;92526.00;;;;10368487;28;46717;-60
2021/11/04 04:36:43;;;;;;;0.10;0.10;;;20.90;36.60;21.30;92508.00;;;;10368071;28;45217;-61
2021/11/04 04:41:43;;;;;;;0.00;0.00;;;20.90;36.60;21.30;92523.00;;;;10367758;28;45629;-59
2021/11/04 04:46:44;;;;;;;0.00;0.00;;;20.90;36.60;21.30;92532.00;;;;10367773;28;45679;-60
2021/11/04 04:51:45;;;;;;;0.00;0.00;;;20.90;36.50;21.30;92536.00;;;;10367434;28;45410;-59
2021/11/04 04:56:45;;;;;;;0.00;0.00;;;20.90;36.50;21.20;92520.00;;;;10352261;28;45412;-59
2021/11/04 05:01:47;;;;;;;0.15;0.10;;;20.90;36.50;21.30;92534.00;;;;10367764;28;46495;-59
2021/11/04 05:06:48;;;;;;;0.13;0.08;;;20.90;36.60;21.30;92542.00;;;;10367341;28;45469;-60
2021/11/04 05:11:49;;;;;;;0.08;0.08;;;20.90;36.60;21.30;92537.00;;;;10352520;28;45461;-61
2021/11/04 05:16:50;;;;;;;0.10;0.08;;;20.90;36.70;21.50;92531.00;;;;10350074;28;47556;-60
2021/11/04 05:21:50;;;;;;;0.00;0.00;;;21.00;36.70;21.50;92551.00;;;;10414193;28;45403;-59
2021/11/04 05:26:51;;;;;;;0.20;0.00;;;21.10;36.70;21.60;92552.00;;;;10432521;28;45527;-60
2021/11/04 05:31:52;;;;;;;0.00;0.00;;;21.10;36.60;21.60;92551.00;;;;10433354;28;45410;-59
2021/11/04 05:36:52;;;;;;;0.10;0.10;;;21.20;36.60;21.70;92558.00;;;;10431920;28;45140;-60
2021/11/04 05:41:53;;;;;;;0.00;0.00;;;21.30;36.60;21.70;92576.00;;;;10432142;28;46515;-59
2021/11/04 05:46:54;;;;;;;0.13;0.10;;;21.30;36.60;21.70;92575.00;;;;10433425;28;45625;-59
2021/11/04 05:51:54;;;;;;;0.08;0.08;;;21.30;36.60;21.80;92590.00;;;;10366383;28;45930;-59
2021/11/04 05:56:55;;;;;;;0.30;0.10;;;21.40;36.60;21.70;92601.00;;;;10366068;28;45421;-67
2021/11/04 06:01:56;;;;;;;0.08;0.03;;;21.40;32.90;21.80;92598.00;;;;10367145;28;46936;-59
2021/11/04 06:06:56;;;;;;;0.10;0.00;;;21.40;33.10;21.70;92597.00;;;;10351137;28;46385;-60
2021/11/04 06:11:57;;;;;;;0.22;0.00;;;21.30;33.30;21.70;92615.00;;;;10427436;22;45654;-61
2021/11/04 06:16:58;;;;;;;0.00;0.00;;;21.30;33.20;21.70;92613.00;;;;10407392;28;45129;-60
2021/11/04 06:21:59;;;;;;;0.00;0.00;;;21.20;33.00;21.60;92641.00;;;;10406906;28;45291;-60
2021/11/04 06:27:00;;;;;;;0.00;0.00;;;21.20;33.10;21.60;92634.00;;;;10390421;28;45332;-59
2021/11/04 06:32:00;;;;;;;0.10;0.10;;;21.20;33.00;21.60;92649.00;;;;10391236;28;45153;-60
2021/11/04 06:37:01;;;;;;;0.00;0.00;;;21.20;32.60;21.60;92651.00;;;;10391871;28;45427;-60
2021/11/04 06:42:02;;;;;;;0.10;0.10;;;21.10;32.60;21.60;92675.00;;;;10408184;28;48266;-60
2021/11/04 06:47:06;;;;;;;0.00;0.00;;;21.10;32.50;21.60;92677.00;;;;10419945;28;46036;-59
2021/11/04 06:52:12;;;;;;;0.00;0.00;;;21.10;32.50;21.60;92680.00;;;;10437577;28;47083;-61
2021/11/04 06:57:19;;;;;;;0.00;0.00;;;21.10;32.30;21.60;92692.00;;;;10437504;28;45168;-61
2021/11/04 07:02:38;;;;;;;0.10;0.10;;;21.10;32.40;21.60;92710.00;;;;10454373;28;46946;-61
2021/11/04 07:07:51;;;;;;;0.00;0.00;;;21.10;32.50;21.60;92689.00;;;;10438284;28;45383;-60
2021/11/04 07:12:52;;;;;;;0.00;0.00;;;21.10;32.60;21.60;92707.00;;;;10437206;28;45303;-59
2021/11/04 07:17:52;;;;;;;0.10;0.10;;;21.10;33.10;21.50;92728.00;;;;10419040;28;48324;-60
2021/11/04 07:22:56;;;;;;;0.00;0.00;;;21.10;32.40;21.60;92751.00;;;;10438614;28;46443;-59
2021/11/04 07:28:07;;;;;;;0.20;0.10;;;21.10;32.50;21.60;92740.00;;;;10436469;28;45317;-60
2021/11/04 07:33:09;;;;;;;0.10;0.10;;;21.10;32.60;21.60;92751.00;;;;10436069;28;47262;-61
2021/11/04 07:38:13;;;;;;;0.10;0.03;;;21.10;32.70;21.50;92758.00;;;;10436646;28;45276;-61
2021/11/04 07:43:14;;;;;;;0.20;0.10;;;21.10;32.60;21.60;92784.00;;;;10437492;28;45841;-62
2021/11/04 07:48:14;;;;;;;0.20;0.10;;;21.10;32.70;21.60;92776.00;;;;10424669;28;46082;-61
2021/11/04 07:53:17;;;;;;;0.10;0.10;;;21.10;32.70;21.60;92787.00;;;;10392623;28;47594;-61
2021/11/04 07:58:18;;;;;;;0.28;0.15;;;21.10;32.90;21.60;92808.00;;;;10392227;28;45610;-60
2021/11/04 08:03:19;;;;;;;0.20;0.20;;;21.10;32.90;21.60;92786.00;;;;10392842;28;45440;-62
2021/11/04 08:08:19;;;;;;;0.10;0.10;;;21.10;33.00;21.60;92798.00;;;;10393074;28;45297;-61
2021/11/04 08:13:21;;;;;;;0.22;0.20;;;21.10;33.10;21.60;92804.00;;;;10394255;28;46152;-62
2021/11/04 08:18:22;;;;;;;0.05;0.05;;;21.10;33.10;21.60;92806.00;;;;10392674;28;46152;-62
2021/11/04 08:23:23;;;;;;;0.20;0.20;;;21.10;32.90;21.60;92813.00;;;;10433032;28;45175;-59
2021/11/04 08:28:23;;;;;;;0.10;0.03;;;21.10;33.10;21.60;92810.00;;;;10433902;28;46971;-61
2021/11/04 08:33:24;;;;;;;0.15;0.10;;;21.10;33.00;21.60;92813.00;;;;10434089;28;45566;-61
2021/11/04 08:38:25;;;;;;;0.45;0.20;;;21.10;33.10;21.60;92834.00;;;;10435153;28;45170;-62
2021/11/04 08:43:26;;;;;;;0.20;0.20;;;21.10;33.10;21.60;92835.00;;;;10433526;28;45540;-60
2021/11/04 08:48:27;;;;;;;0.15;0.10;;;21.20;33.20;21.60;92849.00;;;;10403991;28;47214;-60
2021/11/04 08:53:28;;;;;;;0.40;0.30;;;21.10;33.00;21.60;92859.00;;;;10418771;28;45415;-62
2021/11/04 08:58:29;;;;;;;1.10;0.30;;;21.10;33.00;21.60;92857.00;;;;10388914;28;48113;-61
2021/11/04 09:03:29;;;;;;;1.83;0.47;;;21.10;33.00;21.60;92868.00;;;;10363475;28;45831;-60
2021/11/04 09:08:31;;;;;;;1.42;0.35;;;21.10;33.00;21.60;92887.00;;;;10391628;28;47270;-60
2021/11/04 09:13:32;;;;;;;0.65;0.30;;;21.10;33.10;21.60;92888.00;;;;10392395;28;45222;-60
2021/11/04 09:18:33;;;;;;;1.25;0.40;;;21.10;33.10;21.60;92885.00;;;;10391488;28;45167;-59
2021/11/04 09:23:33;;;;;;;0.50;0.50;;;21.10;33.10;21.60;92915.00;;;;10392975;28;45240;-60
2021/11/04 09:28:34;;;;;;;0.85;0.50;;;21.10;33.00;21.60;92890.00;;;;10392225;28;45446;-60
2021/11/04 09:33:37;;;;;;;1.20;0.55;;;21.10;33.00;21.60;92937.00;;;;10391782;28;45264;-60
2021/11/04 09:38:37;;;;;;;0.77;0.50;;;21.10;33.10;21.60;92938.00;;;;10404252;28;45703;-62
2021/11/04 09:43:39;;;;;;;0.65;0.40;;;21.10;33.00;21.60;92956.00;;;;10426672;28;46260;-61
2021/11/04 09:48:40;;;;;;;0.90;0.40;;;21.20;33.10;21.60;92955.00;;;;10433738;28;46221;-61
2021/11/04 09:53:42;;;;;;;0.73;0.45;;;21.10;33.00;21.60;92950.00;;;;10428984;28;45304;-60
2021/11/04 09:58:43;;;;;;;0.68;0.30;;;21.10;32.90;21.60;92960.00;;;;10433494;28;46350;-61
2021/11/04 10:03:47;;;;;;;0.95;0.40;;;21.10;33.00;21.60;92983.00;;;;10432298;28;45378;-60
2021/11/04 10:08:58;;;;;;;0.35;0.35;;;21.20;33.10;21.60;92973.00;;;;10432903;28;46486;-60
2021/11/04 10:14:06;;;;;;;0.60;0.50;;;21.10;33.00;21.60;92982.00;;;;10431337;28;47051;-61
2021/11/04 10:19:10;;;;;;;0.35;0.35;;;21.10;33.00;21.60;92978.00;;;;10437759;28;46150;-61
2021/11/04 10:24:24;;;;;;;0.50;0.40;;;21.10;33.00;21.60;92995.00;;;;10439067;28;45412;-61
2021/11/04 10:29:36;;;;;;;0.52;0.43;;;21.10;33.00;21.60;92996.00;;;;10438223;28;47070;-59
2021/11/04 10:34:38;;;;;;;0.75;0.45;;;21.10;32.90;21.60;93002.00;;;;10439039;28;45192;-60
2021/11/04 10:39:40;;;;;;;1.23;0.50;;;21.10;32.60;21.50;92990.00;;;;10438634;28;45154;-60
2021/11/04 10:44:41;;;;;;;2.03;0.50;;;21.10;32.30;21.60;92993.00;;;;10439797;28;45927;-61
2021/11/04 10:49:51;;;;;;;2.13;1.00;;;21.10;32.30;21.40;93004.00;;;;10439462;28;45116;-59
2021/11/04 10:54:52;;;;;;;2.03;0.90;;;21.10;32.00;21.60;93026.00;;;;10439433;28;45920;-61
2021/11/04 10:59:52;;;;;;;4.47;0.68;;;21.10;32.30;21.60;93034.00;;;;10438112;28;46392;-59
2021/11/04 11:04:53;;;;;;;1.13;0.80;;;21.10;32.50;21.60;93037.00;;;;10437323;28;45251;-60
2021/11/04 11:09:54;;;;;;;1.60;0.60;;;21.10;32.60;21.60;93034.00;;;;10436276;28;47208;-60
2021/11/04 11:14:55;;;;;;;1.25;0.52;;;21.20;32.90;21.60;93044.00;;;;10435708;28;45169;-60
2021/11/04 11:19:58;;;;;;;1.58;0.50;;;21.10;32.90;21.60;93061.00;;;;10436381;28;45342;-60
2021/11/04 11:24:59;;;;;;;2.78;0.63;;;21.20;33.00;21.60;93065.00;;;;10420080;28;47184;-61
2021/11/04 11:30:00;;;;;;;1.65;0.40;;;21.10;33.00;21.60;93069.00;;;;10404368;28;48325;-60
2021/11/04 11:35:10;;;;;;;1.25;0.40;;;21.20;33.20;21.60;93068.00;;;;10393815;28;45377;-59
2021/11/04 11:40:14;;;;;;;0.80;0.40;;;21.20;33.90;21.60;93072.00;;;;10394754;28;45564;-59
2021/11/04 11:45:14;;;;;;;1.70;0.35;;;21.20;33.30;21.60;93082.00;;;;10393903;28;45553;-62
2021/11/04 11:50:32;;;;;;;0.30;0.30;;;21.20;33.30;21.60;93080.00;;;;10421986;28;45237;-60
2021/11/04 11:55:46;;;;;;;0.30;0.30;;;21.20;33.40;21.60;93083.00;;;;10435188;28;46550;-60
2021/11/04 12:01:10;;;;;;;1.85;0.30;;;21.20;33.50;21.60;93086.00;;;;10434750;28;46341;-60
2021/11/04 12:06:15;;;;;;;0.40;0.30;;;21.20;33.60;21.60;93090.00;;;;10434658;28;45651;-60
2021/11/04 12:11:36;;;;;;;0.63;0.30;;;21.20;33.60;21.60;93092.00;;;;10470028;22;47452;-60
2021/11/04 12:16:37;;;;;;;0.75;0.30;;;21.20;33.70;21.70;93108.00;;;;10414332;28;47466;-60
2021/11/04 12:21:38;;;;;;;0.85;0.30;;;21.20;33.70;21.70;93114.00;;;;10423318;28;46419;-59
2021/11/04 12:26:41;;;;;;;1.27;0.30;;;21.20;33.80;21.70;93128.00;;;;10434256;28;45203;-59
2021/11/04 12:31:48;;;;;;;1.35;0.20;;;21.20;33.80;21.70;93126.00;;;;10380866;28;46241;-59
2021/11/04 12:36:54;;;;;;;0.60;0.15;;;21.20;33.80;21.70;93115.00;;;;10389750;28;45351;-60
2021/11/04 12:41:58;;;;;;;1.55;0.20;;;21.20;33.80;21.70;93121.00;;;;10391912;28;46277;-60
2021/11/04 12:47:06;;;;;;;0.28;0.20;;;21.20;33.80;21.70;93128.00;;;;10402125;28;45188;-60
2021/11/04 12:52:09;;;;;;;0.38;0.20;;;21.20;33.80;21.70;93134.00;;;;10368450;28;45439;-60
2021/11/04 12:57:13;;;;;;;1.17;0.38;;;21.20;33.80;21.70;93123.00;;;;10389991;28;45427;-59
2021/11/04 13:02:15;;;;;;;1.52;0.50;;;21.20;33.90;21.70;93140.00;;;;10389862;28;45193;-61
2021/11/04 13:07:21;;;;;;;0.70;0.30;;;21.20;34.00;21.70;93152.00;;;;10376282;28;47832;-60
2021/11/04 13:12:42;;;;;;;1.88;0.38;;;21.30;33.90;21.70;93158.00;;;;10356497;28;47189;-61
2021/11/04 13:17:58;;;;;;;0.22;0.22;;;21.30;33.70;21.70;93166.00;;;;10374784;28;47932;-59
2021/11/04 13:23:05;;;;;;;2.58;0.40;;;21.30;33.60;21.70;93173.00;;;;10402443;28;46329;-60
2021/11/04 13:28:09;;;;;;;0.40;0.35;;;21.20;33.50;21.70;93185.00;;;;10391436;28;45273;-59
2021/11/04 13:33:12;;;;;;;1.63;0.25;;;21.30;33.60;21.70;93182.00;;;;10390551;28;46380;-60
2021/11/04 13:38:21;;;;;;;2.17;0.47;;;21.30;33.70;21.60;93183.00;;;;10390650;28;45235;-60
2021/11/04 13:43:46;;;;;;;2.80;0.50;;;21.20;33.70;21.70;93196.00;;;;10390706;28;45587;-60
2021/11/04 13:49:08;;;;;;;2.50;0.50;;;21.30;33.70;21.70;93191.00;;;;10352436;28;47151;-59
2021/11/04 13:54:26;;;;;;;1.13;0.50;;;21.20;33.60;21.70;93199.00;;;;10420204;28;45546;-58
2021/11/04 13:59:37;;;;;;;2.45;0.50;;;21.20;33.60;21.60;93218.00;;;;10431804;28;45138;-60
2021/11/04 14:05:00;;;;;;;2.20;0.50;;;21.20;33.50;21.60;93228.00;;;;10433156;28;46492;-59
2021/11/04 14:10:09;;;;;;;2.42;0.60;;;21.10;33.50;21.60;93220.00;;;;10432409;28;45295;-60
2021/11/04 14:15:20;;;;;;;1.50;0.40;;;21.20;33.50;21.60;93219.00;;;;10430915;28;47221;-59
2021/11/04 14:20:30;;;;;;;1.45;0.50;;;21.20;33.50;21.70;93235.00;;;;10419871;28;45421;-61
2021/11/04 14:25:30;;;;;;;0.70;0.40;;;21.20;33.60;21.70;93232.00;;;;10390273;28;45276;-60
2021/11/04 14:30:39;;;;;;;2.10;0.50;;;21.20;33.60;21.70;93244.00;;;;10389117;28;45398;-60
2021/11/04 14:35:39;;;;;;;3.22;0.60;;;21.20;33.70;21.60;93254.00;;;;10389329;28;47313;-61
2021/11/04 14:40:40;;;;;;;2.65;0.60;;;21.20;33.60;21.60;93251.00;;;;10390432;28;45360;-59
2021/11/04 14:45:41;;;;;;;1.40;0.63;;;21.20;33.50;21.60;93253.00;;;;10388307;28;47794;-60
2021/11/04 14:50:42;;;;;;;1.13;0.60;;;21.10;32.90;21.50;93255.00;;;;10419010;28;45657;-60
2021/11/04 14:55:43;;;;;;;1.85;0.82;;;21.10;32.80;21.50;93257.00;;;;10430735;28;45409;-60
2021/11/04 15:00:43;;;;;;;0.60;0.50;;;21.10;32.60;21.50;93262.00;;;;10429510;28;45207;-59
2021/11/04 15:05:46;;;;;;;1.17;0.70;;;21.10;32.60;21.60;93276.00;;;;10418193;28;48617;-59
2021/11/04 15:10:46;;;;;;;0.98;0.60;;;21.10;32.90;21.60;93285.00;;;;10436926;28;45657;-60
2021/11/04 15:15:49;;;;;;;1.13;0.70;;;21.10;32.90;21.60;93287.00;;;;10438045;28;45545;-60
2021/11/04 15:20:49;;;;;;;1.25;0.70;;;21.10;33.00;21.60;93300.00;;;;10420972;28;46252;-59
2021/11/04 15:25:56;;;;;;;2.40;0.70;;;21.10;33.00;21.60;93281.00;;;;10395099;28;45274;-59
2021/11/04 15:30:57;;;;;;;2.58;1.08;;;21.10;33.10;21.50;93307.00;;;;10394834;28;45519;-60
2021/11/04 15:35:58;;;;;;;4.50;0.75;;;21.10;32.80;21.40;93314.00;;;;10394278;28;45157;-57
2021/11/04 15:40:58;;;;;;;1.48;0.90;;;21.00;32.50;21.40;93300.00;;;;10393861;28;47116;-59
2021/11/04 15:45:59;;;;;;;1.02;0.70;;;21.00;32.40;21.40;93308.00;;;;10393805;28;45252;-55
2021/11/04 15:51:02;;;;;;;1.77;0.63;;;21.00;32.60;21.30;93315.00;;;;10426967;28;46479;-58
2021/11/04 15:56:03;;;;;;;1.15;0.85;;;20.90;32.90;21.40;93320.00;;;;10435249;28;45466;-58
2021/11/04 16:01:04;;;;;;;0.63;0.55;;;20.90;33.10;21.40;93320.00;;;;10435496;28;46154;-59
2021/11/04 16:06:04;;;;;;;2.00;0.60;;;21.00;33.20;21.50;93326.00;;;;10432532;28;46117;-57
2021/11/04 16:11:06;;;;;;;2.63;0.75;;;21.00;33.40;21.50;93349.00;;;;10434613;28;46207;-57
2021/11/04 16:16:07;;;;;;;3.78;0.85;;;21.10;33.50;21.60;93345.00;;;;10384435;28;46552;-60
2021/11/04 16:21:08;;;;;;;4.57;1.00;;;21.10;33.70;21.60;93354.00;;;;10406384;28;45472;-57
2021/11/04 16:26:08;;;;;;;6.90;0.90;;;21.10;33.90;21.60;93355.00;;;;10433548;28;47223;-56
2021/11/04 16:31:09;;;;;;;4.30;1.33;;;21.10;34.00;21.60;93352.00;;;;10433324;28;46739;-59
2021/11/04 16:36:10;;;;;;;3.53;0.80;;;21.10;34.00;21.60;93362.00;;;;10433791;28;46376;-59
2021/11/04 16:41:11;;;;;;;5.10;0.73;;;21.20;34.20;21.60;93373.00;;;;10433542;28;45358;-59
2021/11/04 16:46:24;;;;;;;3.88;0.75;;;21.20;34.30;21.70;93387.00;;;;10433762;28;45396;-59
2021/11/04 16:51:24;;;;;;;3.63;0.70;;;21.20;34.50;21.70;93384.00;;;;10371994;28;45325;-58
2021/11/04 16:56:26;;;;;;;2.45;0.70;;;21.20;34.50;21.70;93397.00;;;;10350669;28;46528;-57
2021/11/04 17:01:26;;;;;;;2.53;0.68;;;21.20;34.60;21.70;93410.00;;;;10350604;28;45292;-59
2021/11/04 17:06:27;;;;;;;1.23;0.50;;;21.30;34.70;21.70;93420.00;;;;10350095;28;46330;-59
2021/11/04 17:11:29;;;;;;;4.00;0.80;;;21.20;34.80;21.70;93417.00;;;;10350666;28;46043;-58
2021/11/04 17:16:34;;;;;;;2.15;0.80;;;21.20;34.80;21.70;93416.00;;;;10351209;28;46136;-59
2021/11/04 17:21:35;;;;;;;2.90;0.65;;;21.20;34.70;21.70;93425.00;;;;10376884;28;47006;-59
2021/11/04 17:26:37;;;;;;;0.95;0.57;;;21.30;34.80;21.80;93425.00;;;;10432494;28;47355;-57
2021/11/04 17:31:38;;;;;;;4.13;0.80;;;21.30;34.90;21.80;93438.00;;;;10430430;28;45212;-59
2021/11/04 17:36:42;;;;;;;6.20;0.70;;;21.30;35.00;21.70;93448.00;;;;10433363;28;46311;-59
2021/11/04 17:41:43;;;;;;;0.77;0.50;;;21.30;34.80;21.70;93457.00;;;;10431973;28;46226;-58
2021/11/04 17:46:44;;;;;;;2.55;0.60;;;21.30;34.80;21.80;93454.00;;;;10433261;28;45111;-58
2021/11/04 17:51:47;;;;;;;3.92;0.73;;;21.30;35.20;21.80;93464.00;;;;10366444;28;45156;-59
2021/11/04 17:56:47;;;;;;;5.47;0.70;;;21.30;35.30;21.90;93448.00;;;;10349721;28;45200;-58
2021/11/04 18:01:50;;;;;;;3.58;0.80;;;21.40;35.40;21.90;93470.00;;;;10352886;28;45539;-62
2021/11/04 18:06:52;;;;;;;3.47;0.55;;;21.40;35.20;21.80;93481.00;;;;10389365;28;45437;-64
2021/11/04 18:11:53;;;;;;;2.95;0.40;;;21.40;35.30;21.80;93483.00;;;;10403422;28;46335;-62
2021/11/04 18:16:55;;;;;;;1.35;0.52;;;21.40;35.40;21.80;93493.00;;;;10372444;28;46973;-59
2021/11/04 18:21:57;;;;;;;5.18;0.90;;;21.30;35.00;21.80;93482.00;;;;10414623;28;45406;-59
2021/11/04 18:26:59;;;;;;;2.50;0.63;;;21.30;34.80;21.70;93498.00;;;;10431923;28;45189;-58
2021/11/04 18:32:00;;;;;;;1.77;0.82;;;21.30;34.60;21.70;93496.00;;;;10431936;28;48378;-58
2021/11/04 18:37:01;;;;;;;3.15;0.60;;;21.30;34.50;21.70;93509.00;;;;10432514;28;45476;-57
2021/11/04 18:42:02;;;;;;;2.17;0.73;;;21.20;34.40;21.80;93513.00;;;;10383562;28;45542;-58
2021/11/04 18:47:03;;;;;;;1.75;0.55;;;21.30;34.30;21.80;93510.00;;;;10383377;28;45424;-63
2021/11/04 18:52:05;;;;;;;2.80;0.50;;;21.30;34.70;21.80;93509.00;;;;10438266;28;45279;-63
2021/11/04 18:57:06;;;;;;;1.13;0.40;;;21.30;34.90;21.80;93516.00;;;;10421991;28;47918;-63
2021/11/04 19:02:07;;;;;;;0.95;0.45;;;21.30;35.00;21.80;93521.00;;;;10398080;28;45209;-66
2021/11/04 19:07:08;;;;;;;1.23;0.55;;;21.30;35.00;21.80;93515.00;;;;10379507;28;47025;-66
2021/11/04 19:12:08;;;;;;;0.98;0.50;;;21.30;35.00;21.80;93530.00;;;;10407325;28;45312;-65
2021/11/04 19:17:09;;;;;;;0.95;0.57;;;21.30;34.70;21.70;93526.00;;;;10396087;28;45311;-64
2021/11/04 19:22:10;;;;;;;1.45;0.50;;;21.30;34.80;21.70;93518.00;;;;10369938;28;46351;-58
2021/11/04 19:27:11;;;;;;;4.35;0.43;;;21.30;34.70;21.60;93528.00;;;;10354989;28;46972;-59
2021/11/04 19:32:11;;;;;;;1.35;0.40;;;21.20;33.90;21.60;93548.00;;;;10354581;28;45204;-59
2021/11/04 19:37:13;;;;;;;0.60;0.30;;;21.20;33.70;21.60;93543.00;;;;10378491;28;45487;-59
2021/11/04 19:42:13;;;;;;;0.60;0.30;;;21.10;33.30;21.60;93548.00;;;;10395100;28;45174;-58
2021/11/04 19:47:14;;;;;;;1.73;0.20;;;21.10;33.00;21.60;93540.00;;;;10397190;28;45382;-60
2021/11/04 19:52:15;;;;;;;0.20;0.20;;;21.10;33.30;21.60;93552.00;;;;10405348;28;45383;-59
2021/11/04 19:57:16;;;;;;;0.47;0.22;;;21.10;33.40;21.60;93571.00;;;;10393360;28;45155;-59
2021/11/04 20:02:17;;;;;;;0.68;0.30;;;21.10;33.40;21.50;93567.00;;;;10414954;28;47078;-58
2021/11/04 20:07:18;;;;;;;0.63;0.40;;;21.10;33.40;21.50;93569.00;;;;10435148;28;46492;-59
2021/11/04 20:12:19;;;;;;;0.57;0.32;;;21.10;33.40;21.60;93561.00;;;;10434823;28;47412;-59
2021/11/04 20:17:19;;;;;;;1.25;0.50;;;21.10;33.40;21.50;93568.00;;;;10434936;28;46576;-58
2021/11/04 20:22:20;;;;;;;1.15;0.30;;;21.10;33.40;21.50;93590.00;;;;10362695;28;47367;-59
2021/11/04 20:27:21;;;;;;;0.88;0.30;;;21.10;33.30;21.50;93585.00;;;;10372511;28;45204;-59
2021/11/04 20:32:22;;;;;;;0.60;0.30;;;21.10;33.50;21.40;93592.00;;;;10392608;28;46179;-62
2021/11/04 20:37:22;;;;;;;0.50;0.30;;;20.90;31.70;21.40;93588.00;;;;10393652;28;45392;-66
2021/11/04 20:42:27;;;;;;;0.52;0.28;;;21.00;32.90;21.50;93597.00;;;;10394183;28;46557;-64
2021/11/04 20:47:28;;;;;;;0.63;0.32;;;21.10;33.20;21.50;93594.00;;;;10393944;28;45462;-63
2021/11/04 20:52:28;;;;;;;0.73;0.20;;;21.00;33.40;21.60;93607.00;;;;10389593;28;48424;-59
2021/11/04 20:57:29;;;;;;;0.73;0.28;;;21.10;33.60;21.60;93623.00;;;;10366968;28;45376;-61
2021/11/04 21:02:30;;;;;;;0.35;0.28;;;21.10;33.70;21.60;93614.00;;;;10351111;28;45287;-61
2021/11/04 21:07:30;;;;;;;0.10;0.10;;;21.10;33.70;21.60;93617.00;;;;10373159;28;46719;-61
2021/11/04 21:12:31;;;;;;;1.65;0.30;;;21.10;34.20;21.60;93612.00;;;;10388015;28;47117;-65
2021/11/04 21:17:35;;;;;;;0.95;0.25;;;21.10;33.40;21.60;93630.00;;;;10391999;28;47351;-60
2021/11/04 21:22:38;;;;;;;0.75;0.15;;;21.10;33.50;21.60;93626.00;;;;10382834;28;45327;-60
2021/11/04 21:27:41;;;;;;;1.02;0.20;;;21.10;33.70;21.60;93631.00;;;;10390952;28;45429;-61
2021/11/04 21:32:43;;;;;;;0.43;0.20;;;21.10;33.80;21.60;93639.00;;;;10390835;28;47705;-58
2021/11/04 21:37:44;;;;;;;0.20;0.20;;;21.10;33.80;21.50;93634.00;;;;10390768;28;45477;-62
2021/11/04 21:42:48;;;;;;;0.28;0.20;;;21.10;33.70;21.50;93631.00;;;;10391175;28;47488;-63
2021/11/04 21:47:50;;;;;;;1.15;0.28;;;21.10;33.60;21.50;93641.00;;;;10398888;28;45369;-62
2021/11/04 21:52:52;;;;;;;1.25;0.10;;;21.10;33.60;21.50;93635.00;;;;10431671;28;45415;-59
2021/11/04 21:57:55;;;;;;;1.02;0.30;;;21.00;33.30;21.40;93638.00;;;;10431407;28;46307;-58
2021/11/04 22:03:02;;;;;;;0.98;0.30;;;21.00;32.70;21.40;93659.00;;;;10431377;28;45605;-60
2021/11/04 22:08:04;;;;;;;0.45;0.10;;;21.00;32.90;21.40;93646.00;;;;10430210;28;45274;-59
2021/11/04 22:13:05;;;;;;;1.23;0.32;;;21.00;32.70;21.40;93654.00;;;;10430091;28;45343;-59
2021/11/04 22:18:06;;;;;;;0.52;0.40;;;20.90;32.60;21.40;93640.00;;;;10438083;28;47084;-59